Winton Post Office, Australia
Current Conditions -  °F | °C
As of 12:00 AM on Thursday 27 Nov 2014 (Local Time) from YLRE Reporting Station
Overcast Overcast  
Wind Chill: 31°   Ceiling: 10000
Heat Index: 31°   Visibility: 6mi
Dew Point: 13°   Wind: 10mph
Humidity: 33%   Direction: 170°S
Pressure: 29.88"   Gusts: NA
Location:  22.38°S, 143.03°E
Report Text: YLRE 261400Z AUTO 17009KT 9999 // OVC100 31/13 Q1012
Loading
Personal Weather Stations






























Interactive Weather Map New forecast layout! Learn more

10-Day Weather Forecast

Advertisements
Track Severe Weather on mobile